Terminal Aerodrome Forecast
Issued by NWS

Home | Current Version | Previous Version | Graphics & Text | Print | Product List | Glossary On
Versions: 1 2 3 4 5 6 7 8 9 10 11 12 13 14 15
000
FTUS45 KGGW 142324
TAFSDY
TAF
KSDY 142324Z 1500/1524 12007KT P6SM -SHRA OVC070
     FM150300 22004KT P6SM VCSH BKN070
     FM150600 VRB03KT P6SM BKN050
     FM151200 VRB03KT P6SM BKN020=

USA.gov is the U.S. government's official web portal to all federal, state and local government web resources and services.